East Jordan, Michigan
Current Conditions -  °F | °C
As of 5:14 PM on Friday 24 Oct 2014 (Local Time) from KCVX Reporting Station
Overcast Overcast  
Wind Chill: 54°   Ceiling: 1200
Heat Index: 54°   Visibility: 7mi
Dew Point: 50°   Wind: 7mph
Humidity: 86%   Direction: 230°SW
Pressure: 29.95"   Gusts: NA
Location:  45.16°N, 85.12°W
Report Text: KCVX 242114Z AUTO 23006KT 7SM OVC012 12/10 A2995 RMK AO2 T01230100
Loading
Personal Weather Stations






























Interactive Weather Map
Tropical Storm Tracking
New forecast layout! Learn more

10-Day Weather Forecast

Advertisements
Track Severe Weather on mobile